sensor_id;sensor_type;location;lat;lon;timestamp;temperature;humidity
10278;DHT22;5184;51.376;7.148;2023-07-13T00:01:45;17.00;1.00
10278;DHT22;5184;51.376;7.148;2023-07-13T00:04:13;16.80;1.00
10278;DHT22;5184;51.376;7.148;2023-07-13T00:06:39;16.80;1.00
10278;DHT22;5184;51.376;7.148;2023-07-13T00:09:06;16.80;1.00
10278;DHT22;5184;51.376;7.148;2023-07-13T00:11:32;16.70;24.70
10278;DHT22;5184;51.376;7.148;2023-07-13T00:13:59;16.70;88.00
10278;DHT22;5184;51.376;7.148;2023-07-13T00:16:26;16.70;99.90
10278;DHT22;5184;51.376;7.148;2023-07-13T00:18:53;16.50;99.90
10278;DHT22;5184;51.376;7.148;2023-07-13T00:21:20;16.50;99.90
10278;DHT22;5184;51.376;7.148;2023-07-13T00:23:48;16.50;99.90
10278;DHT22;5184;51.376;7.148;2023-07-13T00:26:14;16.50;99.90
10278;DHT22;5184;51.376;7.148;2023-07-13T00:28:40;16.40;99.90
10278;DHT22;5184;51.376;7.148;2023-07-13T00:31:08;16.40;99.90
10278;DHT22;5184;51.376;7.148;2023-07-13T00:33:34;16.30;99.90
10278;DHT22;5184;51.376;7.148;2023-07-13T00:36:01;16.30;99.90
10278;DHT22;5184;51.376;7.148;2023-07-13T00:38:28;16.20;99.90
10278;DHT22;5184;51.376;7.148;2023-07-13T00:40:55;16.20;1.00
10278;DHT22;5184;51.376;7.148;2023-07-13T00:43:23;16.10;1.00
10278;DHT22;5184;51.376;7.148;2023-07-13T00:46:10;16.10;1.00
10278;DHT22;5184;51.376;7.148;2023-07-13T00:48:33;16.00;1.00
10278;DHT22;5184;51.376;7.148;2023-07-13T00:50:59;16.00;1.00
10278;DHT22;5184;51.376;7.148;2023-07-13T00:53:27;16.00;1.00
10278;DHT22;5184;51.376;7.148;2023-07-13T00:55:54;15.90;1.00
10278;DHT22;5184;51.376;7.148;2023-07-13T00:58:20;15.90;1.00
10278;DHT22;5184;51.376;7.148;2023-07-13T01:00:47;15.90;1.00
10278;DHT22;5184;51.376;7.148;2023-07-13T01:03:14;15.80;1.00
10278;DHT22;5184;51.376;7.148;2023-07-13T01:05:40;15.80;1.00
10278;DHT22;5184;51.376;7.148;2023-07-13T01:08:07;15.80;1.00
10278;DHT22;5184;51.376;7.148;2023-07-13T01:10:33;15.70;1.00
10278;DHT22;5184;51.376;7.148;2023-07-13T01:13:00;15.70;1.00
10278;DHT22;5184;51.376;7.148;2023-07-13T01:15:34;15.70;99.90
10278;DHT22;5184;51.376;7.148;2023-07-13T01:18:00;15.60;99.90
10278;DHT22;5184;51.376;7.148;2023-07-13T01:20:26;15.50;99.90
10278;DHT22;5184;51.376;7.148;2023-07-13T01:22:53;15.50;99.90
10278;DHT22;5184;51.376;7.148;2023-07-13T01:25:20;15.40;99.90
10278;DHT22;5184;51.376;7.148;2023-07-13T01:27:47;15.30;99.90
10278;DHT22;5184;51.376;7.148;2023-07-13T01:30:14;15.30;99.90
10278;DHT22;5184;51.376;7.148;2023-07-13T01:32:42;15.30;99.90
10278;DHT22;5184;51.376;7.148;2023-07-13T01:35:08;15.30;99.90
10278;DHT22;5184;51.376;7.148;2023-07-13T01:37:36;15.20;99.90
10278;DHT22;5184;51.376;7.148;2023-07-13T01:40:03;15.20;99.90
10278;DHT22;5184;51.376;7.148;2023-07-13T01:42:29;15.20;99.90
10278;DHT22;5184;51.376;7.148;2023-07-13T01:44:56;15.20;99.90
10278;DHT22;5184;51.376;7.148;2023-07-13T01:47:23;15.20;99.90
10278;DHT22;5184;51.376;7.148;2023-07-13T01:49:50;15.10;99.90
10278;DHT22;5184;51.376;7.148;2023-07-13T01:52:16;15.10;99.90
10278;DHT22;5184;51.376;7.148;2023-07-13T01:54:43;15.10;1.00
10278;DHT22;5184;51.376;7.148;2023-07-13T01:57:10;15.00;1.00
10278;DHT22;5184;51.376;7.148;2023-07-13T01:59:37;15.10;99.90
10278;DHT22;5184;51.376;7.148;2023-07-13T02:02:03;15.10;99.90
10278;DHT22;5184;51.376;7.148;2023-07-13T02:04:30;15.00;99.90
10278;DHT22;5184;51.376;7.148;2023-07-13T02:06:57;15.00;99.90
10278;DHT22;5184;51.376;7.148;2023-07-13T02:09:25;15.00;99.90
10278;DHT22;5184;51.376;7.148;2023-07-13T02:11:51;15.00;99.90
10278;DHT22;5184;51.376;7.148;2023-07-13T02:14:18;15.00;99.90
10278;DHT22;5184;51.376;7.148;2023-07-13T02:16:45;15.00;99.90
10278;DHT22;5184;51.376;7.148;2023-07-13T02:19:11;15.00;99.90
10278;DHT22;5184;51.376;7.148;2023-07-13T02:21:38;15.00;99.90
10278;DHT22;5184;51.376;7.148;2023-07-13T02:24:05;15.00;99.90
10278;DHT22;5184;51.376;7.148;2023-07-13T02:26:32;15.00;99.90
10278;DHT22;5184;51.376;7.148;2023-07-13T02:28:59;15.00;99.90
10278;DHT22;5184;51.376;7.148;2023-07-13T02:31:26;15.00;99.90
10278;DHT22;5184;51.376;7.148;2023-07-13T02:33:52;15.00;99.90
10278;DHT22;5184;51.376;7.148;2023-07-13T02:36:19;14.90;99.90
10278;DHT22;5184;51.376;7.148;2023-07-13T02:38:45;14.90;99.90
10278;DHT22;5184;51.376;7.148;2023-07-13T02:41:12;14.90;99.90
10278;DHT22;5184;51.376;7.148;2023-07-13T02:43:39;14.70;1.00
10278;DHT22;5184;51.376;7.148;2023-07-13T02:46:06;14.70;1.00
10278;DHT22;5184;51.376;7.148;2023-07-13T02:48:33;14.70;1.00
10278;DHT22;5184;51.376;7.148;2023-07-13T02:51:00;14.70;1.00
10278;DHT22;5184;51.376;7.148;2023-07-13T02:53:27;14.70;1.00
10278;DHT22;5184;51.376;7.148;2023-07-13T02:55:55;14.70;1.00
10278;DHT22;5184;51.376;7.148;2023-07-13T02:58:22;14.70;1.00
10278;DHT22;5184;51.376;7.148;2023-07-13T03:00:49;14.70;1.00
10278;DHT22;5184;51.376;7.148;2023-07-13T03:03:17;14.70;1.00
10278;DHT22;5184;51.376;7.148;2023-07-13T03:05:44;14.60;1.00
10278;DHT22;5184;51.376;7.148;2023-07-13T03:08:11;14.60;1.00
10278;DHT22;5184;51.376;7.148;2023-07-13T03:10:38;14.60;1.00
10278;DHT22;5184;51.376;7.148;2023-07-13T03:13:05;14.50;1.00
10278;DHT22;5184;51.376;7.148;2023-07-13T03:15:32;14.50;1.00
10278;DHT22;5184;51.376;7.148;2023-07-13T03:17:59;14.50;1.00
10278;DHT22;5184;51.376;7.148;2023-07-13T03:20:25;14.50;12.90
10278;DHT22;5184;51.376;7.148;2023-07-13T03:22:52;14.50;12.90
10278;DHT22;5184;51.376;7.148;2023-07-13T03:25:18;14.40;9.30
10278;DHT22;5184;51.376;7.148;2023-07-13T03:27:45;14.40;56.80
10278;DHT22;5184;51.376;7.148;2023-07-13T03:30:12;14.40;99.90
10278;DHT22;5184;51.376;7.148;2023-07-13T03:32:39;14.40;99.90
10278;DHT22;5184;51.376;7.148;2023-07-13T03:35:07;14.40;99.90
10278;DHT22;5184;51.376;7.148;2023-07-13T03:37:33;14.40;99.90
10278;DHT22;5184;51.376;7.148;2023-07-13T03:40:00;14.40;99.90
10278;DHT22;5184;51.376;7.148;2023-07-13T03:42:27;14.40;99.90
10278;DHT22;5184;51.376;7.148;2023-07-13T03:44:54;14.40;99.90
10278;DHT22;5184;51.376;7.148;2023-07-13T03:47:20;14.40;99.90
10278;DHT22;5184;51.376;7.148;2023-07-13T03:49:47;14.40;99.90
10278;DHT22;5184;51.376;7.148;2023-07-13T03:52:14;14.40;99.90
10278;DHT22;5184;51.376;7.148;2023-07-13T03:54:40;14.40;99.90
10278;DHT22;5184;51.376;7.148;2023-07-13T03:57:07;14.40;99.90
10278;DHT22;5184;51.376;7.148;2023-07-13T03:59:33;14.40;99.90
10278;DHT22;5184;51.376;7.148;2023-07-13T04:02:01;14.40;1.00
10278;DHT22;5184;51.376;7.148;2023-07-13T04:04:28;14.40;1.00
10278;DHT22;5184;51.376;7.148;2023-07-13T04:06:56;14.40;1.00
10278;DHT22;5184;51.376;7.148;2023-07-13T04:09:23;14.40;1.00
10278;DHT22;5184;51.376;7.148;2023-07-13T04:11:50;14.50;1.00
10278;DHT22;5184;51.376;7.148;2023-07-13T04:14:18;14.50;1.00
10278;DHT22;5184;51.376;7.148;2023-07-13T04:16:45;14.50;1.00
10278;DHT22;5184;51.376;7.148;2023-07-13T04:19:12;14.50;1.00
10278;DHT22;5184;51.376;7.148;2023-07-13T04:21:38;14.50;1.00
10278;DHT22;5184;51.376;7.148;2023-07-13T04:24:05;14.60;1.00
10278;DHT22;5184;51.376;7.148;2023-07-13T04:26:31;14.60;1.00
10278;DHT22;5184;51.376;7.148;2023-07-13T04:28:58;14.60;1.00
10278;DHT22;5184;51.376;7.148;2023-07-13T04:31:25;14.60;1.00
10278;DHT22;5184;51.376;7.148;2023-07-13T04:33:51;14.70;1.00
10278;DHT22;5184;51.376;7.148;2023-07-13T04:36:18;14.40;1.00
10278;DHT22;5184;51.376;7.148;2023-07-13T04:38:44;14.70;1.00
10278;DHT22;5184;51.376;7.148;2023-07-13T04:41:11;14.80;99.90
10278;DHT22;5184;51.376;7.148;2023-07-13T04:43:38;14.80;99.90
10278;DHT22;5184;51.376;7.148;2023-07-13T04:46:07;15.40;99.90
10278;DHT22;5184;51.376;7.148;2023-07-13T04:48:33;14.80;99.90
10278;DHT22;5184;51.376;7.148;2023-07-13T04:51:00;14.80;99.90
10278;DHT22;5184;51.376;7.148;2023-07-13T04:53:27;14.80;99.90
10278;DHT22;5184;51.376;7.148;2023-07-13T04:55:54;14.90;99.90
10278;DHT22;5184;51.376;7.148;2023-07-13T04:58:20;14.90;99.90
10278;DHT22;5184;51.376;7.148;2023-07-13T05:00:47;15.00;99.90
10278;DHT22;5184;51.376;7.148;2023-07-13T05:03:13;15.00;99.90
10278;DHT22;5184;51.376;7.148;2023-07-13T05:05:41;15.10;99.90
10278;DHT22;5184;51.376;7.148;2023-07-13T05:08:08;15.10;43.10
10278;DHT22;5184;51.376;7.148;2023-07-13T05:10:35;15.10;34.20
10278;DHT22;5184;51.376;7.148;2023-07-13T05:13:01;15.20;45.70
10278;DHT22;5184;51.376;7.148;2023-07-13T05:15:28;15.30;2.60
10278;DHT22;5184;51.376;7.148;2023-07-13T05:17:54;15.30;1.00
10278;DHT22;5184;51.376;7.148;2023-07-13T05:20:21;15.40;1.00
10278;DHT22;5184;51.376;7.148;2023-07-13T05:22:48;15.50;1.00
10278;DHT22;5184;51.376;7.148;2023-07-13T05:25:14;15.50;1.00
10278;DHT22;5184;51.376;7.148;2023-07-13T05:27:41;15.50;1.00
10278;DHT22;5184;51.376;7.148;2023-07-13T05:30:08;15.60;1.00
10278;DHT22;5184;51.376;7.148;2023-07-13T05:32:34;15.60;1.00
10278;DHT22;5184;51.376;7.148;2023-07-13T05:35:01;15.60;1.00
10278;DHT22;5184;51.376;7.148;2023-07-13T05:37:28;15.80;1.00
10278;DHT22;5184;51.376;7.148;2023-07-13T05:39:56;15.80;1.00
10278;DHT22;5184;51.376;7.148;2023-07-13T05:42:22;15.80;1.00
10278;DHT22;5184;51.376;7.148;2023-07-13T05:44:49;15.80;1.00
10278;DHT22;5184;51.376;7.148;2023-07-13T05:47:15;15.80;1.00
10278;DHT22;5184;51.376;7.148;2023-07-13T05:49:42;15.80;1.00
10278;DHT22;5184;51.376;7.148;2023-07-13T05:52:09;15.70;1.00
10278;DHT22;5184;51.376;7.148;2023-07-13T05:54:35;15.80;1.00
10278;DHT22;5184;51.376;7.148;2023-07-13T05:57:02;15.80;1.00
10278;DHT22;5184;51.376;7.148;2023-07-13T05:59:29;15.80;2.00
10278;DHT22;5184;51.376;7.148;2023-07-13T06:01:56;15.80;1.00
10278;DHT22;5184;51.376;7.148;2023-07-13T06:04:22;15.90;25.00
10278;DHT22;5184;51.376;7.148;2023-07-13T06:06:49;15.90;1.00
10278;DHT22;5184;51.376;7.148;2023-07-13T06:09:15;15.90;99.90
10278;DHT22;5184;51.376;7.148;2023-07-13T06:11:42;15.90;99.90
10278;DHT22;5184;51.376;7.148;2023-07-13T06:14:09;15.90;62.30
10278;DHT22;5184;51.376;7.148;2023-07-13T06:16:35;15.90;14.70
10278;DHT22;5184;51.376;7.148;2023-07-13T06:19:02;15.90;99.90
10278;DHT22;5184;51.376;7.148;2023-07-13T06:21:28;15.90;99.90
10278;DHT22;5184;51.376;7.148;2023-07-13T06:23:55;15.90;99.90
10278;DHT22;5184;51.376;7.148;2023-07-13T06:26:22;15.90;99.90
10278;DHT22;5184;51.376;7.148;2023-07-13T06:28:48;15.90;99.90
10278;DHT22;5184;51.376;7.148;2023-07-13T06:31:16;16.00;99.90
10278;DHT22;5184;51.376;7.148;2023-07-13T06:33:43;16.20;99.90
10278;DHT22;5184;51.376;7.148;2023-07-13T06:36:11;16.20;28.90
10278;DHT22;5184;51.376;7.148;2023-07-13T06:38:37;16.20;16.80
10278;DHT22;5184;51.376;7.148;2023-07-13T06:41:04;16.30;1.00
10278;DHT22;5184;51.376;7.148;2023-07-13T06:43:30;16.40;1.00
10278;DHT22;5184;51.376;7.148;2023-07-13T06:45:57;16.50;1.00
10278;DHT22;5184;51.376;7.148;2023-07-13T06:48:23;16.50;1.00
10278;DHT22;5184;51.376;7.148;2023-07-13T06:50:50;16.60;1.00
10278;DHT22;5184;51.376;7.148;2023-07-13T06:53:17;16.50;1.00
10278;DHT22;5184;51.376;7.148;2023-07-13T06:55:44;16.40;1.00
10278;DHT22;5184;51.376;7.148;2023-07-13T06:58:11;16.50;1.00
10278;DHT22;5184;51.376;7.148;2023-07-13T07:00:39;16.60;1.00
10278;DHT22;5184;51.376;7.148;2023-07-13T07:03:06;16.70;99.90
10278;DHT22;5184;51.376;7.148;2023-07-13T07:05:32;16.70;99.90
10278;DHT22;5184;51.376;7.148;2023-07-13T07:07:59;16.80;1.00
10278;DHT22;5184;51.376;7.148;2023-07-13T07:10:26;16.80;99.90
10278;DHT22;5184;51.376;7.148;2023-07-13T07:12:52;16.90;99.90
10278;DHT22;5184;51.376;7.148;2023-07-13T07:15:19;16.90;1.00
10278;DHT22;5184;51.376;7.148;2023-07-13T07:17:45;16.90;99.90
10278;DHT22;5184;51.376;7.148;2023-07-13T07:20:13;17.00;99.90
10278;DHT22;5184;51.376;7.148;2023-07-13T07:22:40;17.00;99.90
10278;DHT22;5184;51.376;7.148;2023-07-13T07:25:07;17.00;99.90
10278;DHT22;5184;51.376;7.148;2023-07-13T07:27:34;17.20;1.00
10278;DHT22;5184;51.376;7.148;2023-07-13T07:30:01;17.20;99.90
10278;DHT22;5184;51.376;7.148;2023-07-13T07:32:28;17.40;99.90
10278;DHT22;5184;51.376;7.148;2023-07-13T07:34:54;17.50;1.00
10278;DHT22;5184;51.376;7.148;2023-07-13T07:37:21;17.60;1.00
10278;DHT22;5184;51.376;7.148;2023-07-13T07:39:47;17.60;1.00
10278;DHT22;5184;51.376;7.148;2023-07-13T07:42:16;17.70;1.00
10278;DHT22;5184;51.376;7.148;2023-07-13T07:44:43;17.70;1.00
10278;DHT22;5184;51.376;7.148;2023-07-13T07:47:09;17.70;1.00
10278;DHT22;5184;51.376;7.148;2023-07-13T07:49:36;17.80;1.00
10278;DHT22;5184;51.376;7.148;2023-07-13T07:52:04;18.00;1.00
10278;DHT22;5184;51.376;7.148;2023-07-13T07:54:31;17.90;99.90
10278;DHT22;5184;51.376;7.148;2023-07-13T07:56:58;18.00;1.00
10278;DHT22;5184;51.376;7.148;2023-07-13T07:59:26;17.90;99.90
10278;DHT22;5184;51.376;7.148;2023-07-13T08:01:53;17.90;99.90
10278;DHT22;5184;51.376;7.148;2023-07-13T08:04:21;17.80;1.00
10278;DHT22;5184;51.376;7.148;2023-07-13T08:06:47;17.80;99.90
10278;DHT22;5184;51.376;7.148;2023-07-13T08:09:15;17.60;1.00
10278;DHT22;5184;51.376;7.148;2023-07-13T08:11:43;17.80;99.90
10278;DHT22;5184;51.376;7.148;2023-07-13T08:14:10;17.70;1.00
10278;DHT22;5184;51.376;7.148;2023-07-13T08:16:37;18.00;1.00
10278;DHT22;5184;51.376;7.148;2023-07-13T08:19:05;18.30;85.00
10278;DHT22;5184;51.376;7.148;2023-07-13T08:21:32;18.50;99.90
10278;DHT22;5184;51.376;7.148;2023-07-13T08:23:59;18.50;99.90
10278;DHT22;5184;51.376;7.148;2023-07-13T08:26:25;18.70;1.00
10278;DHT22;5184;51.376;7.148;2023-07-13T08:28:52;18.70;1.00
10278;DHT22;5184;51.376;7.148;2023-07-13T08:31:18;18.80;1.00
10278;DHT22;5184;51.376;7.148;2023-07-13T08:33:45;19.00;1.00
10278;DHT22;5184;51.376;7.148;2023-07-13T08:36:12;19.00;1.00
10278;DHT22;5184;51.376;7.148;2023-07-13T08:38:38;19.00;1.00
10278;DHT22;5184;51.376;7.148;2023-07-13T08:41:13;19.00;1.00
10278;DHT22;5184;51.376;7.148;2023-07-13T08:43:39;18.80;1.00
10278;DHT22;5184;51.376;7.148;2023-07-13T08:48:41;18.80;1.00
10278;DHT22;5184;51.376;7.148;2023-07-13T08:51:23;18.70;1.00
10278;DHT22;5184;51.376;7.148;2023-07-13T08:53:38;18.70;1.00
10278;DHT22;5184;51.376;7.148;2023-07-13T08:56:03;18.80;1.00
10278;DHT22;5184;51.376;7.148;2023-07-13T08:58:31;19.10;1.00
10278;DHT22;5184;51.376;7.148;2023-07-13T09:01:20;19.10;1.00
10278;DHT22;5184;51.376;7.148;2023-07-13T09:03:59;19.10;1.00
10278;DHT22;5184;51.376;7.148;2023-07-13T09:06:27;19.00;1.00
10278;DHT22;5184;51.376;7.148;2023-07-13T09:08:59;19.10;1.00
10278;DHT22;5184;51.376;7.148;2023-07-13T09:11:35;19.10;99.90
10278;DHT22;5184;51.376;7.148;2023-07-13T09:14:03;19.10;1.00
10278;DHT22;5184;51.376;7.148;2023-07-13T09:16:27;19.20;1.00
10278;DHT22;5184;51.376;7.148;2023-07-13T09:18:54;19.40;99.90
10278;DHT22;5184;51.376;7.148;2023-07-13T09:21:23;19.40;99.90
10278;DHT22;5184;51.376;7.148;2023-07-13T09:23:48;19.50;99.90
10278;DHT22;5184;51.376;7.148;2023-07-13T09:26:20;19.80;99.90
10278;DHT22;5184;51.376;7.148;2023-07-13T09:28:51;19.90;91.50
10278;DHT22;5184;51.376;7.148;2023-07-13T09:31:19;19.90;78.30
10278;DHT22;5184;51.376;7.148;2023-07-13T09:33:43;19.90;99.90
10278;DHT22;5184;51.376;7.148;2023-07-13T09:36:27;19.90;99.90
10278;DHT22;5184;51.376;7.148;2023-07-13T09:39:14;20.00;99.90
10278;DHT22;5184;51.376;7.148;2023-07-13T09:41:54;20.40;30.80
10278;DHT22;5184;51.376;7.148;2023-07-13T09:46:52;20.40;4.20
10278;DHT22;5184;51.376;7.148;2023-07-13T09:49:18;20.40;1.00
10278;DHT22;5184;51.376;7.148;2023-07-13T09:51:45;20.20;1.00
10278;DHT22;5184;51.376;7.148;2023-07-13T09:54:18;20.20;1.00
10278;DHT22;5184;51.376;7.148;2023-07-13T09:56:44;20.30;99.90
10278;DHT22;5184;51.376;7.148;2023-07-13T09:59:20;20.00;1.00
10278;DHT22;5184;51.376;7.148;2023-07-13T10:01:45;20.30;99.90
10278;DHT22;5184;51.376;7.148;2023-07-13T10:04:12;20.30;1.00
10278;DHT22;5184;51.376;7.148;2023-07-13T10:06:39;20.10;1.00
10278;DHT22;5184;51.376;7.148;2023-07-13T10:09:06;19.90;99.90
10278;DHT22;5184;51.376;7.148;2023-07-13T10:11:32;19.90;99.90
10278;DHT22;5184;51.376;7.148;2023-07-13T10:14:01;20.10;1.00
10278;DHT22;5184;51.376;7.148;2023-07-13T10:16:28;20.10;2.70
10278;DHT22;5184;51.376;7.148;2023-07-13T10:18:56;20.20;1.00
10278;DHT22;5184;51.376;7.148;2023-07-13T10:21:23;20.40;1.00
10278;DHT22;5184;51.376;7.148;2023-07-13T10:23:55;20.40;1.00
10278;DHT22;5184;51.376;7.148;2023-07-13T10:26:23;20.50;1.00
10278;DHT22;5184;51.376;7.148;2023-07-13T10:28:49;20.50;1.00
10278;DHT22;5184;51.376;7.148;2023-07-13T10:31:15;20.60;1.00
10278;DHT22;5184;51.376;7.148;2023-07-13T10:33:42;20.70;1.00
10278;DHT22;5184;51.376;7.148;2023-07-13T10:36:13;20.80;99.90
10278;DHT22;5184;51.376;7.148;2023-07-13T10:38:39;20.80;99.90
10278;DHT22;5184;51.376;7.148;2023-07-13T10:41:06;20.70;99.90
10278;DHT22;5184;51.376;7.148;2023-07-13T10:43:35;20.60;99.90
10278;DHT22;5184;51.376;7.148;2023-07-13T10:46:01;20.60;99.90
10278;DHT22;5184;51.376;7.148;2023-07-13T10:48:28;20.50;1.00
10278;DHT22;5184;51.376;7.148;2023-07-13T10:50:55;20.50;1.00
10278;DHT22;5184;51.376;7.148;2023-07-13T10:53:32;20.60;1.00
10278;DHT22;5184;51.376;7.148;2023-07-13T10:56:01;20.60;99.90
10278;DHT22;5184;51.376;7.148;2023-07-13T10:58:32;20.60;99.90
10278;DHT22;5184;51.376;7.148;2023-07-13T11:01:07;20.60;99.90
10278;DHT22;5184;51.376;7.148;2023-07-13T11:03:31;20.50;99.90
10278;DHT22;5184;51.376;7.148;2023-07-13T11:08:38;20.70;99.90
10278;DHT22;5184;51.376;7.148;2023-07-13T11:11:03;20.80;1.00
10278;DHT22;5184;51.376;7.148;2023-07-13T11:13:38;21.00;99.90
10278;DHT22;5184;51.376;7.148;2023-07-13T11:18:45;21.10;99.90
10278;DHT22;5184;51.376;7.148;2023-07-13T11:21:13;21.30;99.90
10278;DHT22;5184;51.376;7.148;2023-07-13T11:23:41;21.40;99.90
10278;DHT22;5184;51.376;7.148;2023-07-13T11:26:36;21.70;99.90
10278;DHT22;5184;51.376;7.148;2023-07-13T11:28:32;21.70;60.40
10278;DHT22;5184;51.376;7.148;2023-07-13T11:31:00;21.60;99.90
10278;DHT22;5184;51.376;7.148;2023-07-13T11:33:43;21.40;99.90
10278;DHT22;5184;51.376;7.148;2023-07-13T11:36:00;21.30;64.90
10278;DHT22;5184;51.376;7.148;2023-07-13T11:38:39;21.10;99.90
10278;DHT22;5184;51.376;7.148;2023-07-13T11:41:12;21.10;99.90
10278;DHT22;5184;51.376;7.148;2023-07-13T11:43:33;21.40;81.90
10278;DHT22;5184;51.376;7.148;2023-07-13T11:46:19;21.60;1.00
10278;DHT22;5184;51.376;7.148;2023-07-13T11:48:43;21.60;1.00
10278;DHT22;5184;51.376;7.148;2023-07-13T11:51:11;21.60;3.10
10278;DHT22;5184;51.376;7.148;2023-07-13T11:53:38;21.70;58.80
10278;DHT22;5184;51.376;7.148;2023-07-13T11:56:04;21.90;25.30
10278;DHT22;5184;51.376;7.148;2023-07-13T11:58:31;22.10;1.00
10278;DHT22;5184;51.376;7.148;2023-07-13T12:00:59;21.90;1.00
10278;DHT22;5184;51.376;7.148;2023-07-13T12:03:26;21.70;1.00
10278;DHT22;5184;51.376;7.148;2023-07-13T12:06:00;21.70;1.00
10278;DHT22;5184;51.376;7.148;2023-07-13T12:08:25;21.70;1.00
10278;DHT22;5184;51.376;7.148;2023-07-13T12:10:58;21.80;1.00
10278;DHT22;5184;51.376;7.148;2023-07-13T12:13:23;21.80;1.00
10278;DHT22;5184;51.376;7.148;2023-07-13T12:15:50;22.10;85.70
10278;DHT22;5184;51.376;7.148;2023-07-13T12:18:19;22.30;1.00
10278;DHT22;5184;51.376;7.148;2023-07-13T12:20:45;22.30;1.00
10278;DHT22;5184;51.376;7.148;2023-07-13T12:23:31;22.20;1.00
10278;DHT22;5184;51.376;7.148;2023-07-13T12:25:57;22.00;1.00
10278;DHT22;5184;51.376;7.148;2023-07-13T12:28:38;21.70;1.00
10278;DHT22;5184;51.376;7.148;2023-07-13T12:31:07;21.60;1.00
10278;DHT22;5184;51.376;7.148;2023-07-13T12:33:33;21.50;1.00
10278;DHT22;5184;51.376;7.148;2023-07-13T12:36:03;21.70;1.00
10278;DHT22;5184;51.376;7.148;2023-07-13T12:38:27;21.90;1.00
10278;DHT22;5184;51.376;7.148;2023-07-13T12:40:54;22.20;1.00
10278;DHT22;5184;51.376;7.148;2023-07-13T12:43:21;22.50;1.00
10278;DHT22;5184;51.376;7.148;2023-07-13T12:45:58;22.80;99.90
10278;DHT22;5184;51.376;7.148;2023-07-13T12:48:23;22.80;99.90
10278;DHT22;5184;51.376;7.148;2023-07-13T12:50:50;22.70;99.90
10278;DHT22;5184;51.376;7.148;2023-07-13T12:53:32;22.80;99.90
10278;DHT22;5184;51.376;7.148;2023-07-13T12:55:59;23.00;1.00
10278;DHT22;5184;51.376;7.148;2023-07-13T12:58:26;23.30;99.90
10278;DHT22;5184;51.376;7.148;2023-07-13T13:00:54;23.10;99.90
10278;DHT22;5184;51.376;7.148;2023-07-13T13:03:26;23.00;99.90
10278;DHT22;5184;51.376;7.148;2023-07-13T13:05:56;23.30;99.90
10278;DHT22;5184;51.376;7.148;2023-07-13T13:08:17;23.60;99.90
10278;DHT22;5184;51.376;7.148;2023-07-13T13:10:44;23.00;99.90
10278;DHT22;5184;51.376;7.148;2023-07-13T13:13:10;23.40;99.90
10278;DHT22;5184;51.376;7.148;2023-07-13T13:15:37;23.00;99.90
10278;DHT22;5184;51.376;7.148;2023-07-13T13:18:08;22.60;99.90
10278;DHT22;5184;51.376;7.148;2023-07-13T13:20:30;22.40;1.00
10278;DHT22;5184;51.376;7.148;2023-07-13T13:22:57;22.10;1.00
10278;DHT22;5184;51.376;7.148;2023-07-13T13:25:25;21.90;1.00
10278;DHT22;5184;51.376;7.148;2023-07-13T13:27:52;21.90;99.90
10278;DHT22;5184;51.376;7.148;2023-07-13T13:30:19;21.90;1.00
10278;DHT22;5184;51.376;7.148;2023-07-13T13:32:47;21.90;1.00
10278;DHT22;5184;51.376;7.148;2023-07-13T13:35:15;21.70;99.90
10278;DHT22;5184;51.376;7.148;2023-07-13T13:37:41;21.70;99.90
10278;DHT22;5184;51.376;7.148;2023-07-13T13:40:14;21.80;1.00
10278;DHT22;5184;51.376;7.148;2023-07-13T13:42:41;21.90;99.90
10278;DHT22;5184;51.376;7.148;2023-07-13T13:45:09;21.90;99.90
10278;DHT22;5184;51.376;7.148;2023-07-13T13:47:36;22.00;99.90
10278;DHT22;5184;51.376;7.148;2023-07-13T13:50:11;22.30;99.90
10278;DHT22;5184;51.376;7.148;2023-07-13T13:52:38;22.90;99.90
10278;DHT22;5184;51.376;7.148;2023-07-13T13:55:15;23.30;99.90
10278;DHT22;5184;51.376;7.148;2023-07-13T13:57:41;23.00;99.90
10278;DHT22;5184;51.376;7.148;2023-07-13T14:00:09;23.50;99.90
10278;DHT22;5184;51.376;7.148;2023-07-13T14:02:36;23.50;99.90
10278;DHT22;5184;51.376;7.148;2023-07-13T14:05:03;23.10;99.90
10278;DHT22;5184;51.376;7.148;2023-07-13T14:07:30;23.10;99.90
10278;DHT22;5184;51.376;7.148;2023-07-13T14:09:57;22.80;99.90
10278;DHT22;5184;51.376;7.148;2023-07-13T14:12:23;22.70;99.90
10278;DHT22;5184;51.376;7.148;2023-07-13T14:14:50;22.50;99.90
10278;DHT22;5184;51.376;7.148;2023-07-13T14:17:20;22.20;99.90
10278;DHT22;5184;51.376;7.148;2023-07-13T14:19:46;21.80;1.00
10278;DHT22;5184;51.376;7.148;2023-07-13T14:22:13;21.30;99.90
10278;DHT22;5184;51.376;7.148;2023-07-13T14:24:39;20.60;99.90
10278;DHT22;5184;51.376;7.148;2023-07-13T14:27:07;20.20;1.00
10278;DHT22;5184;51.376;7.148;2023-07-13T14:29:32;19.90;1.00
10278;DHT22;5184;51.376;7.148;2023-07-13T14:32:00;20.00;1.00
10278;DHT22;5184;51.376;7.148;2023-07-13T14:34:27;20.40;99.90
10278;DHT22;5184;51.376;7.148;2023-07-13T14:36:54;20.90;99.90
10278;DHT22;5184;51.376;7.148;2023-07-13T14:39:22;20.90;99.90
10278;DHT22;5184;51.376;7.148;2023-07-13T14:41:49;21.40;1.00
10278;DHT22;5184;51.376;7.148;2023-07-13T14:44:15;21.60;1.00
10278;DHT22;5184;51.376;7.148;2023-07-13T14:46:41;22.10;6.30
10278;DHT22;5184;51.376;7.148;2023-07-13T14:51:40;22.90;99.90
10278;DHT22;5184;51.376;7.148;2023-07-13T14:54:08;22.90;99.90
10278;DHT22;5184;51.376;7.148;2023-07-13T14:56:33;22.60;99.90
10278;DHT22;5184;51.376;7.148;2023-07-13T14:58:59;22.50;99.90
10278;DHT22;5184;51.376;7.148;2023-07-13T15:01:26;22.40;1.00
10278;DHT22;5184;51.376;7.148;2023-07-13T15:03:53;22.50;1.00
10278;DHT22;5184;51.376;7.148;2023-07-13T15:06:21;22.90;1.00
10278;DHT22;5184;51.376;7.148;2023-07-13T15:08:48;23.40;99.90
10278;DHT22;5184;51.376;7.148;2023-07-13T15:11:15;23.40;99.90
10278;DHT22;5184;51.376;7.148;2023-07-13T15:13:41;23.60;78.40
10278;DHT22;5184;51.376;7.148;2023-07-13T15:16:20;23.80;99.90
10278;DHT22;5184;51.376;7.148;2023-07-13T15:18:45;24.20;1.00
10278;DHT22;5184;51.376;7.148;2023-07-13T15:21:13;24.60;1.00
10278;DHT22;5184;51.376;7.148;2023-07-13T15:23:39;24.00;1.00
10278;DHT22;5184;51.376;7.148;2023-07-13T15:26:09;23.40;2.30
10278;DHT22;5184;51.376;7.148;2023-07-13T15:28:33;22.70;99.90
10278;DHT22;5184;51.376;7.148;2023-07-13T15:31:01;22.30;99.90
10278;DHT22;5184;51.376;7.148;2023-07-13T15:33:28;22.30;99.90
10278;DHT22;5184;51.376;7.148;2023-07-13T15:35:54;21.90;1.00
10278;DHT22;5184;51.376;7.148;2023-07-13T15:38:22;21.60;1.00
10278;DHT22;5184;51.376;7.148;2023-07-13T15:40:49;21.50;1.00
10278;DHT22;5184;51.376;7.148;2023-07-13T15:43:15;21.30;99.90
10278;DHT22;5184;51.376;7.148;2023-07-13T15:45:41;21.30;99.90
10278;DHT22;5184;51.376;7.148;2023-07-13T15:48:18;21.10;1.00
10278;DHT22;5184;51.376;7.148;2023-07-13T15:50:54;20.70;99.90
10278;DHT22;5184;51.376;7.148;2023-07-13T15:53:22;20.00;1.00
10278;DHT22;5184;51.376;7.148;2023-07-13T15:55:48;19.50;99.90
10278;DHT22;5184;51.376;7.148;2023-07-13T15:58:15;18.90;99.90
10278;DHT22;5184;51.376;7.148;2023-07-13T16:00:42;18.80;99.90
10278;DHT22;5184;51.376;7.148;2023-07-13T16:03:08;18.80;1.00
10278;DHT22;5184;51.376;7.148;2023-07-13T16:05:35;18.60;1.00
10278;DHT22;5184;51.376;7.148;2023-07-13T16:08:01;18.50;17.90